createdAt,value
2024-01-22T00:01:00.655Z,17.97
2024-01-22T00:03:49.305Z,17.17
2024-01-22T00:06:39.293Z,17.10
2024-01-22T00:09:28.250Z,17.20
2024-01-22T00:12:18.216Z,17.17
2024-01-22T00:15:08.743Z,16.90
2024-01-22T00:17:57.378Z,17.63
2024-01-22T00:20:47.385Z,17.93
2024-01-22T00:23:36.057Z,17.87
2024-01-22T00:26:24.690Z,17.03
2024-01-22T00:29:14.757Z,18.97
2024-01-22T00:32:04.559Z,17.27
2024-01-22T00:34:55.983Z,18.33
2024-01-22T00:37:44.628Z,18.60
2024-01-22T00:40:34.202Z,17.10
2024-01-22T00:43:22.756Z,17.33
2024-01-22T00:46:13.165Z,16.33
2024-01-22T00:49:01.868Z,17.60
2024-01-22T00:51:50.605Z,16.40
2024-01-22T00:54:39.216Z,16.40
2024-01-22T00:57:27.925Z,17.20
2024-01-22T01:00:17.510Z,13.13
2024-01-22T01:03:07.809Z,14.00
2024-01-22T01:05:56.554Z,12.40
2024-01-22T01:11:33.989Z,13.50
2024-01-22T01:14:22.673Z,11.00
2024-01-22T01:17:11.348Z,13.67
2024-01-22T01:20:01.482Z,13.37
2024-01-22T01:22:50.063Z,14.67
2024-01-22T01:25:38.572Z,14.07
2024-01-22T01:28:27.682Z,14.50
2024-01-22T01:31:16.593Z,12.80
2024-01-22T01:34:05.928Z,13.50
2024-01-22T01:36:56.015Z,13.30
2024-01-22T01:39:44.537Z,14.90
2024-01-22T01:42:33.234Z,16.03
2024-01-22T01:45:21.877Z,16.10
2024-01-22T01:48:10.648Z,14.67
2024-01-22T01:50:59.532Z,13.80
2024-01-22T01:53:49.865Z,13.70
2024-01-22T01:56:38.627Z,15.03
2024-01-22T01:59:27.682Z,14.23
2024-01-22T02:02:16.318Z,14.60
2024-01-22T02:05:05.267Z,14.60
2024-01-22T02:07:53.875Z,24.67
2024-01-22T02:10:48.133Z,13.73
2024-01-22T02:13:36.678Z,10.60
2024-01-22T02:16:25.201Z,10.73
2024-01-22T02:19:14.072Z,11.07
2024-01-22T02:22:02.822Z,10.90
2024-01-22T02:24:53.207Z,12.83
2024-01-22T02:27:41.907Z,11.10
2024-01-22T02:30:30.574Z,10.30
2024-01-22T02:33:19.320Z,11.40
2024-01-22T02:36:08.219Z,12.97
2024-01-22T02:38:56.842Z,10.67
2024-01-22T02:41:46.774Z,10.30
2024-01-22T02:44:37.022Z,12.03
2024-01-22T02:47:25.862Z,10.93
2024-01-22T02:50:15.002Z,11.37
2024-01-22T02:53:03.900Z,12.00
2024-01-22T02:55:52.549Z,10.70
2024-01-22T02:58:42.523Z,12.73
2024-01-22T03:01:31.069Z,12.33
2024-01-22T03:04:19.792Z,11.03
2024-01-22T03:07:09.394Z,10.57
2024-01-22T03:09:58.024Z,9.40
2024-01-22T03:12:47.100Z,10.33
2024-01-22T03:15:37.012Z,8.70
2024-01-22T03:18:25.718Z,9.17
2024-01-22T03:21:14.634Z,10.93
2024-01-22T03:24:03.270Z,9.33
2024-01-22T03:26:52.344Z,10.00
2024-01-22T03:29:41.663Z,8.63
2024-01-22T03:32:31.820Z,8.80
2024-01-22T03:35:21.773Z,8.47
2024-01-22T03:38:10.314Z,8.30
2024-01-22T03:40:58.879Z,8.77
2024-01-22T03:43:47.751Z,7.60
2024-01-22T03:46:37.211Z,8.67
2024-01-22T03:49:27.363Z,8.87
2024-01-22T03:52:15.968Z,7.83
2024-01-22T03:55:04.964Z,7.40
2024-01-22T03:57:53.590Z,7.57
2024-01-22T04:00:42.166Z,6.93
2024-01-22T04:03:30.870Z,7.60
2024-01-22T04:06:20.990Z,7.23
2024-01-22T04:09:11.851Z,7.47
2024-01-22T04:12:00.563Z,6.60
2024-01-22T04:14:49.154Z,6.77
2024-01-22T04:17:37.763Z,7.33
2024-01-22T04:20:26.445Z,6.90
2024-01-22T04:23:16.438Z,7.43
2024-01-22T04:26:05.313Z,6.63
2024-01-22T04:28:53.863Z,6.63
2024-01-22T04:31:42.540Z,7.43
2024-01-22T04:34:31.295Z,7.07
2024-01-22T04:37:22.147Z,7.67
2024-01-22T04:40:13.536Z,6.53
2024-01-22T04:43:02.306Z,6.53
2024-01-22T04:45:50.950Z,7.97
2024-01-22T04:48:39.658Z,6.27
2024-01-22T04:51:28.525Z,7.07
2024-01-22T04:54:17.294Z,7.17
2024-01-22T04:57:07.561Z,8.00
2024-01-22T04:59:56.152Z,7.20
2024-01-22T05:02:44.784Z,8.20
2024-01-22T05:05:33.949Z,6.20
2024-01-22T05:08:22.585Z,6.10
2024-01-22T05:11:11.211Z,6.20
2024-01-22T05:14:01.216Z,7.60
2024-01-22T05:16:49.765Z,6.60
2024-01-22T05:19:38.508Z,6.80
2024-01-22T05:22:27.201Z,7.03
2024-01-22T05:25:15.808Z,5.47
2024-01-22T05:28:04.508Z,6.50
2024-01-22T05:30:54.408Z,6.70
2024-01-22T05:33:43.672Z,7.10
2024-01-22T05:36:32.391Z,6.50
2024-01-22T05:39:21.302Z,5.80
2024-01-22T05:42:09.923Z,5.60
2024-01-22T05:44:58.626Z,6.27
2024-01-22T05:47:48.901Z,7.10
2024-01-22T05:50:37.771Z,6.47
2024-01-22T05:53:26.409Z,6.60
2024-01-22T05:56:22.456Z,6.13
2024-01-22T05:59:11.022Z,6.70
2024-01-22T06:01:59.629Z,6.73
2024-01-22T06:04:51.617Z,6.83
2024-01-22T06:07:40.520Z,6.77
2024-01-22T06:10:30.922Z,6.90
2024-01-22T06:13:19.633Z,6.00
2024-01-22T06:16:10.350Z,6.17
2024-01-22T06:19:00.060Z,7.00
2024-01-22T06:21:50.151Z,7.30
2024-01-22T06:24:39.263Z,5.87
2024-01-22T06:27:27.984Z,2.73
2024-01-22T06:30:17.615Z,2.57
2024-01-22T06:33:06.887Z,1.90
2024-01-22T06:35:55.825Z,2.30
2024-01-22T06:38:45.758Z,1.93
2024-01-22T06:41:34.644Z,1.63
2024-01-22T06:44:23.183Z,1.70
2024-01-22T06:47:11.714Z,2.00
2024-01-22T06:50:00.372Z,1.70
2024-01-22T06:52:49.033Z,1.60
2024-01-22T06:55:39.135Z,1.90
2024-01-22T06:58:27.842Z,1.90
2024-01-22T07:01:16.454Z,2.20
2024-01-22T07:04:05.301Z,2.20
2024-01-22T07:06:54.330Z,1.50
2024-01-22T07:09:43.808Z,1.60
2024-01-22T07:12:33.958Z,1.80
2024-01-22T07:15:23.656Z,1.57
2024-01-22T07:18:14.369Z,1.57
2024-01-22T07:21:03.980Z,1.30
2024-01-22T07:23:52.641Z,1.83
2024-01-22T07:26:41.340Z,1.60
2024-01-22T07:29:31.838Z,4.60
2024-01-22T07:32:20.422Z,1.90
2024-01-22T07:35:14.433Z,1.90
2024-01-22T07:38:05.918Z,1.30
2024-01-22T07:40:56.432Z,1.30
2024-01-22T07:43:46.627Z,2.27
2024-01-22T07:46:36.601Z,1.43
2024-01-22T07:49:25.312Z,1.83
2024-01-22T07:52:13.974Z,2.83
2024-01-22T07:55:03.157Z,2.03
2024-01-22T07:57:51.949Z,1.70
2024-01-22T08:00:40.644Z,2.03
2024-01-22T08:03:30.908Z,1.83
2024-01-22T08:06:19.542Z,1.50
2024-01-22T08:09:08.830Z,1.63
2024-01-22T08:11:57.536Z,1.50
2024-01-22T08:14:46.226Z,1.50
2024-01-22T08:17:37.152Z,1.57
2024-01-22T08:20:31.530Z,1.70
2024-01-22T08:23:21.489Z,1.40
2024-01-22T08:26:10.124Z,1.40
2024-01-22T08:28:58.897Z,1.60
2024-01-22T08:31:47.505Z,1.70
2024-01-22T08:34:39.440Z,1.40
2024-01-22T08:37:29.556Z,1.40
2024-01-22T08:40:22.411Z,1.70
2024-01-22T08:43:11.663Z,1.60
2024-01-22T08:46:01.040Z,1.60
2024-01-22T08:48:49.824Z,1.50
2024-01-22T08:51:38.526Z,1.67
2024-01-22T08:54:29.952Z,1.70
2024-01-22T08:57:20.959Z,1.40
2024-01-22T09:00:12.828Z,1.63
2024-01-22T09:03:01.681Z,1.60
2024-01-22T09:05:50.516Z,1.60
2024-01-22T09:08:39.350Z,1.60
2024-01-22T09:11:29.333Z,1.60
2024-01-22T09:14:18.590Z,1.60
2024-01-22T09:17:07.172Z,1.87
2024-01-22T09:19:55.827Z,1.70
2024-01-22T09:22:44.503Z,1.60
2024-01-22T09:25:33.092Z,2.43
2024-01-22T09:28:23.861Z,2.00
2024-01-22T09:31:14.355Z,1.70
2024-01-22T09:34:03.274Z,1.77
2024-01-22T09:36:51.946Z,1.50
2024-01-22T09:39:40.780Z,2.70
2024-01-22T09:42:29.531Z,1.60
2024-01-22T09:45:19.648Z,1.30
2024-01-22T09:48:10.556Z,1.90
2024-01-22T09:50:59.531Z,1.30
2024-01-22T09:53:49.824Z,1.50
2024-01-22T09:56:38.716Z,1.40
2024-01-22T09:59:29.320Z,1.60
2024-01-22T10:02:19.872Z,1.57
2024-01-22T10:05:09.654Z,1.70
2024-01-22T10:07:58.333Z,1.33
2024-01-22T10:10:47.155Z,1.40
2024-01-22T10:13:49.812Z,2.00
2024-01-22T10:16:40.423Z,1.80
2024-01-22T10:19:30.498Z,1.60
2024-01-22T10:22:22.210Z,1.53
2024-01-22T10:25:10.900Z,1.30
2024-01-22T10:28:13.123Z,1.90
2024-01-22T10:31:06.792Z,1.40
2024-01-22T10:34:06.645Z,1.50
2024-01-22T10:37:08.392Z,1.73
2024-01-22T10:40:02.288Z,1.40
2024-01-22T10:42:50.891Z,1.60
2024-01-22T10:45:40.483Z,1.70
2024-01-22T10:48:38.535Z,1.90
2024-01-22T10:51:35.221Z,2.17
2024-01-22T10:54:27.119Z,1.43
2024-01-22T10:57:18.510Z,1.87
2024-01-22T11:00:09.402Z,1.67
2024-01-22T11:02:59.807Z,1.70
2024-01-22T11:05:49.886Z,1.73
2024-01-22T11:08:39.234Z,1.73
2024-01-22T11:11:30.497Z,1.57
2024-01-22T11:14:19.270Z,2.17
2024-01-22T11:17:10.088Z,1.70
2024-01-22T11:20:16.648Z,1.90
2024-01-22T11:23:06.466Z,1.77
2024-01-22T11:26:10.834Z,1.47
2024-01-22T11:29:10.786Z,1.50
2024-01-22T11:31:59.425Z,1.80
2024-01-22T11:34:49.078Z,1.70
2024-01-22T11:37:39.392Z,1.53
2024-01-22T11:40:49.745Z,1.60
2024-01-22T11:43:38.374Z,1.93
2024-01-22T11:46:28.448Z,2.00
2024-01-22T11:49:17.214Z,1.77
2024-01-22T11:52:11.887Z,1.47
2024-01-22T11:55:02.414Z,1.57
2024-01-22T11:57:51.535Z,1.80
2024-01-22T12:00:40.471Z,1.87
2024-01-22T12:03:31.850Z,1.77
2024-01-22T12:06:22.163Z,2.00
2024-01-22T12:09:10.736Z,1.60
2024-01-22T12:12:04.196Z,1.67
2024-01-22T12:14:56.690Z,1.87
2024-01-22T12:17:46.113Z,1.67
2024-01-22T12:20:36.278Z,1.67
2024-01-22T12:23:32.007Z,1.70
2024-01-22T12:26:24.096Z,1.80
2024-01-22T12:29:21.095Z,1.63
2024-01-22T12:32:12.215Z,1.57
2024-01-22T12:35:02.047Z,1.60
2024-01-22T12:37:52.258Z,2.37
2024-01-22T12:40:42.878Z,2.20
2024-01-22T12:43:32.881Z,1.50
2024-01-22T12:46:21.854Z,1.60
2024-01-22T12:49:11.652Z,1.73
2024-01-22T12:52:00.475Z,1.80
2024-01-22T12:54:50.608Z,1.77
2024-01-22T12:57:39.728Z,1.63
2024-01-22T13:00:30.210Z,1.40
2024-01-22T13:03:19.145Z,1.60
2024-01-22T13:06:08.316Z,2.07
2024-01-22T13:08:57.074Z,1.97
2024-01-22T13:11:48.154Z,1.80
2024-01-22T13:14:37.464Z,1.70
2024-01-22T13:17:26.447Z,2.17
2024-01-22T13:20:16.174Z,1.80
2024-01-22T13:23:05.299Z,2.03
2024-01-22T13:25:53.834Z,1.70
2024-01-22T13:28:44.330Z,1.93
2024-01-22T13:31:33.383Z,1.70
2024-01-22T13:34:28.051Z,1.83
2024-01-22T13:37:17.006Z,1.70
2024-01-22T13:40:06.848Z,1.70
2024-01-22T13:42:55.544Z,1.70
2024-01-22T13:45:45.419Z,1.47
2024-01-22T13:48:34.263Z,1.30
2024-01-22T13:51:23.044Z,1.40
2024-01-22T13:54:11.747Z,1.50
2024-01-22T13:57:00.476Z,1.77
2024-01-22T13:59:49.868Z,1.40
2024-01-22T14:02:40.235Z,1.27
2024-01-22T14:05:29.157Z,1.93
2024-01-22T14:08:18.112Z,1.70
2024-01-22T14:11:07.351Z,1.73
2024-01-22T14:13:59.959Z,1.93
2024-01-22T14:16:48.550Z,1.60
2024-01-22T14:19:38.549Z,1.50
2024-01-22T14:22:30.073Z,1.50
2024-01-22T14:25:20.378Z,1.67
2024-01-22T14:28:11.247Z,1.47
2024-01-22T14:31:02.248Z,1.30
2024-01-22T14:33:52.841Z,1.50
2024-01-22T14:36:43.070Z,1.57
2024-01-22T14:39:31.879Z,1.30
2024-01-22T14:42:21.141Z,1.30
2024-01-22T14:45:10.838Z,1.40
2024-01-22T14:47:59.702Z,1.60
2024-01-22T14:50:48.950Z,1.50
2024-01-22T14:53:39.513Z,1.43
2024-01-22T14:56:28.389Z,1.40
2024-01-22T14:59:17.251Z,1.30
2024-01-22T15:02:05.858Z,1.60
2024-01-22T15:04:54.487Z,1.30
2024-01-22T15:07:43.101Z,1.30
2024-01-22T15:10:33.783Z,1.30
2024-01-22T15:13:22.439Z,1.37
2024-01-22T15:16:11.634Z,1.83
2024-01-22T15:19:00.636Z,1.50
2024-01-22T15:21:49.551Z,1.40
2024-01-22T15:24:38.469Z,1.30
2024-01-22T15:27:30.461Z,1.40
2024-01-22T15:30:19.634Z,1.67
2024-01-22T15:33:08.546Z,1.80
2024-01-22T15:35:57.428Z,1.60
2024-01-22T15:38:47.758Z,1.57
2024-01-22T15:41:37.618Z,1.77
2024-01-22T15:44:27.853Z,1.73
2024-01-22T15:47:16.546Z,2.20
2024-01-22T15:50:06.270Z,2.47
2024-01-22T15:52:56.827Z,2.13
2024-01-22T15:55:45.693Z,1.87
2024-01-22T15:58:34.408Z,1.90
2024-01-22T16:01:26.587Z,1.80
2024-01-22T16:04:15.832Z,1.83
2024-01-22T16:07:11.102Z,1.83
2024-01-22T16:10:02.321Z,2.03
2024-01-22T16:12:50.977Z,2.10
2024-01-22T16:15:40.400Z,1.90
2024-01-22T16:18:30.947Z,2.70
2024-01-22T16:21:20.070Z,2.10
2024-01-22T16:24:09.661Z,2.60
2024-01-22T16:26:59.672Z,2.93
2024-01-22T16:29:51.783Z,2.17
2024-01-22T16:32:41.345Z,2.40
2024-01-22T16:35:31.454Z,2.63
2024-01-22T16:38:22.983Z,2.47
2024-01-22T16:41:12.773Z,2.57
2024-01-22T16:44:01.428Z,2.47
2024-01-22T16:46:50.066Z,2.80
2024-01-22T16:49:38.772Z,2.43
2024-01-22T16:52:28.885Z,2.43
2024-01-22T16:55:17.517Z,2.20
2024-01-22T16:58:06.381Z,2.17
2024-01-22T17:00:55.116Z,2.10
2024-01-22T17:03:43.988Z,2.40
2024-01-22T17:06:33.090Z,2.67
2024-01-22T17:09:23.049Z,2.30
2024-01-22T17:12:12.289Z,1.90
2024-01-22T17:15:01.195Z,2.23
2024-01-22T17:17:52.185Z,2.00
2024-01-22T17:20:41.791Z,2.40
2024-01-22T17:23:33.348Z,2.13
2024-01-22T17:26:23.475Z,2.23
2024-01-22T17:29:12.262Z,2.20
2024-01-22T17:32:00.912Z,2.27
2024-01-22T17:34:50.111Z,2.90
2024-01-22T17:37:38.893Z,2.60
2024-01-22T17:40:28.023Z,2.60
2024-01-22T17:43:18.049Z,1.70
2024-01-22T17:46:07.245Z,2.40
2024-01-22T17:48:59.241Z,2.37
2024-01-22T17:51:48.355Z,1.97
2024-01-22T17:54:37.489Z,2.43
2024-01-22T17:57:26.119Z,2.47
2024-01-22T18:00:17.672Z,2.20
2024-01-22T18:03:06.339Z,2.43
2024-01-22T18:05:55.070Z,2.20
2024-01-22T18:08:44.695Z,2.83
2024-01-22T18:11:33.286Z,2.80
2024-01-22T18:14:21.991Z,2.77
2024-01-22T18:17:11.947Z,2.93
2024-01-22T18:20:00.532Z,3.37
2024-01-22T18:22:49.114Z,2.73
2024-01-22T18:25:37.660Z,2.10
2024-01-22T18:28:26.288Z,2.57
2024-01-22T18:31:14.941Z,2.60
2024-01-22T18:34:05.125Z,2.77
2024-01-22T18:36:53.772Z,2.53
2024-01-22T18:39:42.946Z,2.20
2024-01-22T18:42:31.668Z,2.47
2024-01-22T18:45:22.648Z,2.33
2024-01-22T18:48:11.476Z,2.20
2024-01-22T18:51:01.917Z,2.33
2024-01-22T18:53:50.597Z,2.50
2024-01-22T18:56:39.183Z,2.40
2024-01-22T18:59:28.069Z,2.53
2024-01-22T19:02:17.247Z,2.17
2024-01-22T19:05:06.228Z,2.07
2024-01-22T19:07:56.187Z,2.80
2024-01-22T19:10:44.847Z,2.90
2024-01-22T19:13:33.509Z,3.10
2024-01-22T19:16:23.552Z,2.40
2024-01-22T19:19:14.437Z,2.30
2024-01-22T19:22:03.491Z,2.37
2024-01-22T19:24:53.421Z,2.37
2024-01-22T19:27:42.917Z,2.23
2024-01-22T19:30:31.714Z,2.77
2024-01-22T19:33:20.553Z,2.73
2024-01-22T19:36:09.485Z,2.20
2024-01-22T19:38:58.652Z,2.23
2024-01-22T19:41:48.981Z,2.80
2024-01-22T19:44:38.191Z,2.57
2024-01-22T19:47:29.383Z,2.27
2024-01-22T19:50:18.445Z,2.63
2024-01-22T19:53:07.091Z,2.30
2024-01-22T19:55:55.695Z,2.40
2024-01-22T19:58:47.005Z,2.23
2024-01-22T20:01:35.721Z,2.33
2024-01-22T20:04:24.438Z,2.40
2024-01-22T20:07:13.029Z,2.60
2024-01-22T20:10:01.718Z,1.83
2024-01-22T20:12:50.640Z,2.93
2024-01-22T20:15:40.735Z,2.17
2024-01-22T20:18:29.644Z,2.20
2024-01-22T20:21:18.587Z,2.30
2024-01-22T20:24:08.462Z,2.20
2024-01-22T20:26:57.121Z,2.63
2024-01-22T20:29:45.715Z,2.90
2024-01-22T20:32:35.885Z,3.57
2024-01-22T20:35:24.870Z,2.73
2024-01-22T20:38:13.693Z,3.20
2024-01-22T20:41:02.318Z,3.30
2024-01-22T20:43:50.941Z,3.50
2024-01-22T20:46:39.669Z,2.97
2024-01-22T20:49:29.768Z,2.87
2024-01-22T20:52:19.409Z,2.90
2024-01-22T20:55:08.707Z,3.57
2024-01-22T20:57:57.288Z,3.07
2024-01-22T21:00:46.096Z,3.80
2024-01-22T21:03:35.167Z,3.70
2024-01-22T21:06:25.541Z,3.43
2024-01-22T21:09:14.614Z,3.20
2024-01-22T21:12:03.776Z,3.60
2024-01-22T21:14:52.640Z,3.07
2024-01-22T21:17:42.830Z,2.67
2024-01-22T21:20:31.644Z,2.73
2024-01-22T21:23:21.955Z,3.57
2024-01-22T21:26:15.818Z,4.13
2024-01-22T21:29:06.180Z,3.30
2024-01-22T21:31:57.995Z,3.53
2024-01-22T21:34:46.757Z,3.40
2024-01-22T21:37:35.738Z,3.60
2024-01-22T21:40:25.888Z,3.67
2024-01-22T21:43:14.792Z,3.10
2024-01-22T21:46:03.544Z,3.70
2024-01-22T21:48:52.240Z,4.07
2024-01-22T21:51:40.959Z,4.43
2024-01-22T21:54:29.970Z,3.30
2024-01-22T21:57:20.179Z,3.30
2024-01-22T22:00:12.271Z,3.50
2024-01-22T22:03:01.066Z,2.53
2024-01-22T22:05:49.814Z,2.57
2024-01-22T22:08:38.808Z,3.07
2024-01-22T22:11:27.502Z,3.00
2024-01-22T22:14:17.982Z,2.40
2024-01-22T22:17:07.848Z,3.40
2024-01-22T22:19:56.720Z,2.60
2024-01-22T22:22:47.234Z,2.83
2024-01-22T22:25:36.219Z,3.60
2024-01-22T22:28:25.016Z,2.80
2024-01-22T22:31:14.927Z,3.50
2024-01-22T22:34:05.003Z,2.90
2024-01-22T22:36:54.203Z,2.17
2024-01-22T22:39:43.298Z,2.87
2024-01-22T22:42:32.048Z,2.30
2024-01-22T22:45:20.666Z,2.00
2024-01-22T22:48:11.194Z,2.30
2024-01-22T22:50:59.894Z,1.90
2024-01-22T22:53:48.467Z,2.20
2024-01-22T22:56:37.202Z,2.23
2024-01-22T22:59:25.701Z,2.33
2024-01-22T23:02:14.692Z,2.50
2024-01-22T23:05:04.784Z,2.73
2024-01-22T23:07:53.366Z,2.27
2024-01-22T23:10:41.960Z,1.90
2024-01-22T23:13:30.549Z,2.83
2024-01-22T23:16:19.741Z,2.40
2024-01-22T23:19:08.463Z,2.30
2024-01-22T23:21:58.420Z,2.70
2024-01-22T23:24:47.371Z,2.10
2024-01-22T23:27:36.176Z,2.47
2024-01-22T23:30:24.986Z,2.00
2024-01-22T23:33:13.800Z,2.30
2024-01-22T23:36:02.509Z,2.20
2024-01-22T23:38:54.399Z,2.10
2024-01-22T23:41:43.117Z,2.37
2024-01-22T23:44:31.770Z,2.37
2024-01-22T23:47:20.495Z,2.93
2024-01-22T23:50:10.537Z,2.30
2024-01-22T23:52:59.758Z,2.77
2024-01-22T23:55:49.668Z,2.90
2024-01-22T23:58:38.271Z,2.70
